sensor_id;sensor_type;location;lat;lon;timestamp;pressure;altitude;pressure_sealevel;temperature;humidity
56006;BME280;41888;44.696;10.522;2022-09-09T00:04:13;100156.88;;;19.89;100.00
56006;BME280;41888;44.696;10.522;2022-09-09T00:07:04;100149.63;;;19.69;100.00
56006;BME280;41888;44.696;10.522;2022-09-09T00:09:47;100146.41;;;19.67;100.00
56006;BME280;41888;44.696;10.522;2022-09-09T00:13:33;100141.00;;;19.62;100.00
56006;BME280;41888;44.696;10.522;2022-09-09T00:15:41;100140.47;;;19.60;100.00
56006;BME280;41888;44.696;10.522;2022-09-09T00:21:13;100132.63;;;19.58;100.00
56006;BME280;41888;44.696;10.522;2022-09-09T00:23:47;100132.06;;;19.36;100.00
56006;BME280;41888;44.696;10.522;2022-09-09T00:31:35;100144.41;;;18.86;100.00
56006;BME280;41888;44.696;10.522;2022-09-09T00:34:14;100133.06;;;18.74;100.00
56006;BME280;41888;44.696;10.522;2022-09-09T00:36:43;100131.72;;;18.77;100.00
56006;BME280;41888;44.696;10.522;2022-09-09T00:39:38;100133.41;;;18.98;100.00
56006;BME280;41888;44.696;10.522;2022-09-09T00:44:51;100129.06;;;18.87;100.00
56006;BME280;41888;44.696;10.522;2022-09-09T00:47:39;100136.34;;;19.02;100.00
56006;BME280;41888;44.696;10.522;2022-09-09T00:52:56;100134.94;;;18.69;100.00
56006;BME280;41888;44.696;10.522;2022-09-09T00:58:31;100122.25;;;18.64;100.00
56006;BME280;41888;44.696;10.522;2022-09-09T01:01:09;100120.91;;;18.67;100.00
56006;BME280;41888;44.696;10.522;2022-09-09T01:03:39;100127.09;;;18.67;100.00
56006;BME280;41888;44.696;10.522;2022-09-09T01:06:28;100131.97;;;18.70;100.00
56006;BME280;41888;44.696;10.522;2022-09-09T01:17:21;100125.66;;;18.44;100.00
56006;BME280;41888;44.696;10.522;2022-09-09T01:19:57;100120.53;;;18.43;100.00
56006;BME280;41888;44.696;10.522;2022-09-09T01:27:42;100108.41;;;17.88;100.00
56006;BME280;41888;44.696;10.522;2022-09-09T01:30:12;100120.50;;;17.86;100.00
56006;BME280;41888;44.696;10.522;2022-09-09T01:32:43;100110.13;;;17.62;100.00
56006;BME280;41888;44.696;10.522;2022-09-09T01:37:49;100109.66;;;17.39;100.00
56006;BME280;41888;44.696;10.522;2022-09-09T01:40:15;100107.13;;;17.27;100.00
56006;BME280;41888;44.696;10.522;2022-09-09T01:42:42;100108.16;;;17.21;100.00
56006;BME280;41888;44.696;10.522;2022-09-09T01:45:08;100110.59;;;17.22;100.00
56006;BME280;41888;44.696;10.522;2022-09-09T01:47:36;100102.13;;;17.41;100.00
56006;BME280;41888;44.696;10.522;2022-09-09T01:50:03;100102.91;;;17.36;100.00
56006;BME280;41888;44.696;10.522;2022-09-09T01:52:30;100105.63;;;17.41;100.00
56006;BME280;41888;44.696;10.522;2022-09-09T01:54:58;100116.06;;;17.33;100.00
56006;BME280;41888;44.696;10.522;2022-09-09T01:57:26;100103.06;;;17.24;100.00
56006;BME280;41888;44.696;10.522;2022-09-09T02:00:08;100100.94;;;17.26;100.00
56006;BME280;41888;44.696;10.522;2022-09-09T02:03:03;100097.53;;;17.36;100.00
56006;BME280;41888;44.696;10.522;2022-09-09T02:08:07;100100.25;;;17.09;100.00
56006;BME280;41888;44.696;10.522;2022-09-09T02:10:56;100108.97;;;17.21;100.00
56006;BME280;41888;44.696;10.522;2022-09-09T02:13:26;100104.56;;;17.42;100.00
56006;BME280;41888;44.696;10.522;2022-09-09T02:15:56;100102.19;;;17.51;100.00
56006;BME280;41888;44.696;10.522;2022-09-09T02:18:42;100098.41;;;17.47;100.00
56006;BME280;41888;44.696;10.522;2022-09-09T02:21:11;100097.56;;;17.41;100.00
56006;BME280;41888;44.696;10.522;2022-09-09T02:23:41;100095.19;;;17.45;100.00
56006;BME280;41888;44.696;10.522;2022-09-09T02:26:11;100100.09;;;17.58;100.00
56006;BME280;41888;44.696;10.522;2022-09-09T02:28:41;100098.56;;;17.67;100.00
56006;BME280;41888;44.696;10.522;2022-09-09T02:31:08;100102.94;;;17.73;100.00
56006;BME280;41888;44.696;10.522;2022-09-09T02:33:39;100097.78;;;17.71;100.00
56006;BME280;41888;44.696;10.522;2022-09-09T02:36:09;100103.13;;;17.61;100.00
56006;BME280;41888;44.696;10.522;2022-09-09T02:38:42;100101.56;;;17.65;100.00
56006;BME280;41888;44.696;10.522;2022-09-09T02:41:11;100103.94;;;17.62;100.00
56006;BME280;41888;44.696;10.522;2022-09-09T02:43:37;100110.28;;;17.19;100.00
56006;BME280;41888;44.696;10.522;2022-09-09T02:49:03;100099.25;;;16.88;100.00
56006;BME280;41888;44.696;10.522;2022-09-09T02:56:53;100104.47;;;16.52;100.00
56006;BME280;41888;44.696;10.522;2022-09-09T02:59:25;100093.63;;;16.41;100.00
56006;BME280;41888;44.696;10.522;2022-09-09T03:01:51;100099.09;;;16.52;100.00
56006;BME280;41888;44.696;10.522;2022-09-09T03:04:19;100096.06;;;16.43;100.00
56006;BME280;41888;44.696;10.522;2022-09-09T03:06:45;100094.59;;;16.35;100.00
56006;BME280;41888;44.696;10.522;2022-09-09T03:09:12;100099.72;;;16.37;100.00
56006;BME280;41888;44.696;10.522;2022-09-09T03:11:38;100105.16;;;16.42;100.00
56006;BME280;41888;44.696;10.522;2022-09-09T03:14:04;100100.78;;;16.36;100.00
56006;BME280;41888;44.696;10.522;2022-09-09T03:16:31;100105.34;;;16.35;100.00
56006;BME280;41888;44.696;10.522;2022-09-09T03:18:59;100091.50;;;16.43;100.00
56006;BME280;41888;44.696;10.522;2022-09-09T03:21:25;100099.84;;;16.47;100.00
56006;BME280;41888;44.696;10.522;2022-09-09T03:23:51;100099.84;;;16.47;100.00
56006;BME280;41888;44.696;10.522;2022-09-09T03:26:17;100094.13;;;16.38;100.00
56006;BME280;41888;44.696;10.522;2022-09-09T03:28:43;100098.09;;;16.58;100.00
56006;BME280;41888;44.696;10.522;2022-09-09T03:31:11;100095.50;;;16.63;100.00
56006;BME280;41888;44.696;10.522;2022-09-09T03:33:37;100090.41;;;16.66;100.00
56006;BME280;41888;44.696;10.522;2022-09-09T03:36:05;100100.34;;;16.66;100.00
56006;BME280;41888;44.696;10.522;2022-09-09T03:38:31;100092.81;;;16.63;100.00
56006;BME280;41888;44.696;10.522;2022-09-09T03:40:59;100095.66;;;16.56;100.00
56006;BME280;41888;44.696;10.522;2022-09-09T03:43:26;100088.81;;;16.43;100.00
56006;BME280;41888;44.696;10.522;2022-09-09T03:45:53;100091.50;;;16.43;100.00
56006;BME280;41888;44.696;10.522;2022-09-09T03:48:23;100088.88;;;16.48;100.00
56006;BME280;41888;44.696;10.522;2022-09-09T03:50:52;100092.25;;;16.17;100.00
56006;BME280;41888;44.696;10.522;2022-09-09T03:53:20;100091.50;;;16.22;100.00
56006;BME280;41888;44.696;10.522;2022-09-09T03:55:48;100094.13;;;16.17;100.00
56006;BME280;41888;44.696;10.522;2022-09-09T03:58:16;100091.16;;;16.18;100.00
56006;BME280;41888;44.696;10.522;2022-09-09T04:00:54;100086.56;;;16.35;100.00
56006;BME280;41888;44.696;10.522;2022-09-09T04:03:20;100091.81;;;16.25;100.00
56006;BME280;41888;44.696;10.522;2022-09-09T04:05:50;100086.81;;;16.12;100.00
56006;BME280;41888;44.696;10.522;2022-09-09T04:08:17;100081.88;;;16.04;100.00
56006;BME280;41888;44.696;10.522;2022-09-09T04:10:48;100079.69;;;16.01;100.00
56006;BME280;41888;44.696;10.522;2022-09-09T04:13:16;100081.69;;;16.11;100.00
56006;BME280;41888;44.696;10.522;2022-09-09T04:15:44;100070.91;;;16.27;100.00
56006;BME280;41888;44.696;10.522;2022-09-09T04:18:11;100068.28;;;16.32;100.00
56006;BME280;41888;44.696;10.522;2022-09-09T04:20:37;100069.28;;;16.26;100.00
56006;BME280;41888;44.696;10.522;2022-09-09T04:23:04;100069.91;;;16.33;100.00
56006;BME280;41888;44.696;10.522;2022-09-09T04:25:31;100066.66;;;16.31;100.00
56006;BME280;41888;44.696;10.522;2022-09-09T04:27:58;100068.34;;;16.16;100.00
56006;BME280;41888;44.696;10.522;2022-09-09T04:30:25;100074.25;;;15.96;100.00
56006;BME280;41888;44.696;10.522;2022-09-09T04:32:53;100067.22;;;15.90;100.00
56006;BME280;41888;44.696;10.522;2022-09-09T04:35:19;100065.91;;;16.14;100.00
56006;BME280;41888;44.696;10.522;2022-09-09T04:37:46;100064.66;;;16.43;100.00
56006;BME280;41888;44.696;10.522;2022-09-09T04:40:12;100060.56;;;16.63;100.00
56006;BME280;41888;44.696;10.522;2022-09-09T04:42:38;100059.56;;;16.69;100.00
56006;BME280;41888;44.696;10.522;2022-09-09T04:45:06;100062.44;;;16.62;100.00
56006;BME280;41888;44.696;10.522;2022-09-09T04:47:37;100059.16;;;16.33;100.00
56006;BME280;41888;44.696;10.522;2022-09-09T04:50:03;100061.28;;;16.31;100.00
56006;BME280;41888;44.696;10.522;2022-09-09T04:52:30;100055.78;;;16.21;100.00
56006;BME280;41888;44.696;10.522;2022-09-09T04:54:56;100060.81;;;16.39;100.00
56006;BME280;41888;44.696;10.522;2022-09-09T04:57:22;100057.59;;;16.59;100.00
56006;BME280;41888;44.696;10.522;2022-09-09T04:59:48;100054.25;;;16.74;100.00
56006;BME280;41888;44.696;10.522;2022-09-09T05:02:14;100054.63;;;16.61;100.00
56006;BME280;41888;44.696;10.522;2022-09-09T05:04:41;100059.88;;;16.51;100.00
56006;BME280;41888;44.696;10.522;2022-09-09T05:07:07;100059.88;;;16.51;100.00
56006;BME280;41888;44.696;10.522;2022-09-09T05:09:33;100067.56;;;16.42;100.00
56006;BME280;41888;44.696;10.522;2022-09-09T05:12:00;100069.16;;;16.60;100.00
56006;BME280;41888;44.696;10.522;2022-09-09T05:14:26;100075.78;;;17.43;100.00
56006;BME280;41888;44.696;10.522;2022-09-09T05:16:53;100065.28;;;18.40;100.00
56006;BME280;41888;44.696;10.522;2022-09-09T05:19:19;100083.81;;;19.60;100.00
56006;BME280;41888;44.696;10.522;2022-09-09T05:21:46;100075.78;;;20.24;95.95
56006;BME280;41888;44.696;10.522;2022-09-09T05:24:12;100071.81;;;20.65;93.49
56006;BME280;41888;44.696;10.522;2022-09-09T05:26:38;100070.22;;;21.37;88.31
56006;BME280;41888;44.696;10.522;2022-09-09T05:29:04;100068.72;;;21.79;85.69
56006;BME280;41888;44.696;10.522;2022-09-09T05:31:31;100079.44;;;21.89;84.74
56006;BME280;41888;44.696;10.522;2022-09-09T05:33:59;100084.97;;;21.79;84.28
56006;BME280;41888;44.696;10.522;2022-09-09T05:36:25;100097.09;;;21.86;83.49
56006;BME280;41888;44.696;10.522;2022-09-09T05:38:51;100096.81;;;22.36;80.90
56006;BME280;41888;44.696;10.522;2022-09-09T05:41:19;100101.91;;;21.66;83.00
56006;BME280;41888;44.696;10.522;2022-09-09T05:43:46;100094.63;;;21.32;85.09
56006;BME280;41888;44.696;10.522;2022-09-09T05:46:21;100105.97;;;22.82;79.23
56006;BME280;41888;44.696;10.522;2022-09-09T05:48:49;100120.31;;;24.31;71.37
56006;BME280;41888;44.696;10.522;2022-09-09T05:51:20;100116.59;;;25.12;68.38
56006;BME280;41888;44.696;10.522;2022-09-09T05:53:48;100122.22;;;25.83;65.19
56006;BME280;41888;44.696;10.522;2022-09-09T05:56:20;100117.72;;;26.74;61.15
56006;BME280;41888;44.696;10.522;2022-09-09T05:58:48;100118.88;;;27.51;58.37
56006;BME280;41888;44.696;10.522;2022-09-09T06:01:29;100116.50;;;27.87;56.84
56006;BME280;41888;44.696;10.522;2022-09-09T06:03:56;100114.94;;;27.86;56.86
56006;BME280;41888;44.696;10.522;2022-09-09T06:06:24;100118.38;;;28.12;57.04
56006;BME280;41888;44.696;10.522;2022-09-09T06:08:54;100122.22;;;28.49;57.00
56006;BME280;41888;44.696;10.522;2022-09-09T06:11:22;100129.69;;;28.61;56.83
56006;BME280;41888;44.696;10.522;2022-09-09T06:13:49;100128.00;;;29.85;53.86
56006;BME280;41888;44.696;10.522;2022-09-09T06:16:20;100131.38;;;30.39;51.49
56006;BME280;41888;44.696;10.522;2022-09-09T06:18:49;100133.03;;;30.92;49.31
56006;BME280;41888;44.696;10.522;2022-09-09T06:21:18;100126.13;;;31.10;48.33
56006;BME280;41888;44.696;10.522;2022-09-09T06:23:45;100133.47;;;31.06;47.93
56006;BME280;41888;44.696;10.522;2022-09-09T06:26:23;100133.25;;;31.98;45.44
56006;BME280;41888;44.696;10.522;2022-09-09T06:28:52;100134.47;;;31.85;44.98
56006;BME280;41888;44.696;10.522;2022-09-09T06:31:21;100132.59;;;31.73;45.23
56006;BME280;41888;44.696;10.522;2022-09-09T06:33:48;100137.91;;;33.15;42.85
56006;BME280;41888;44.696;10.522;2022-09-09T06:36:26;100141.84;;;33.33;41.95
56006;BME280;41888;44.696;10.522;2022-09-09T06:38:53;100136.53;;;33.85;40.39
56006;BME280;41888;44.696;10.522;2022-09-09T06:41:21;100146.91;;;33.69;41.16
56006;BME280;41888;44.696;10.522;2022-09-09T06:43:48;100137.22;;;33.18;42.75
56006;BME280;41888;44.696;10.522;2022-09-09T06:46:23;100133.06;;;32.22;43.92
56006;BME280;41888;44.696;10.522;2022-09-09T06:48:49;100136.72;;;32.77;43.13
56006;BME280;41888;44.696;10.522;2022-09-09T06:51:21;100132.84;;;32.97;42.63
56006;BME280;41888;44.696;10.522;2022-09-09T06:53:50;100129.91;;;32.71;43.75
56006;BME280;41888;44.696;10.522;2022-09-09T06:56:18;100128.91;;;32.63;43.86
56006;BME280;41888;44.696;10.522;2022-09-09T06:58:45;100136.50;;;32.86;43.99
56006;BME280;41888;44.696;10.522;2022-09-09T07:01:18;100130.56;;;31.42;47.30
56006;BME280;41888;44.696;10.522;2022-09-09T07:03:50;100137.88;;;30.71;51.34
56006;BME280;41888;44.696;10.522;2022-09-09T07:06:22;100139.84;;;29.64;57.51
56006;BME280;41888;44.696;10.522;2022-09-09T07:08:56;100132.00;;;29.01;62.33
56006;BME280;41888;44.696;10.522;2022-09-09T07:11:26;100125.75;;;27.40;70.03
56006;BME280;41888;44.696;10.522;2022-09-09T07:13:53;100120.50;;;27.09;73.71
56006;BME280;41888;44.696;10.522;2022-09-09T07:16:21;100129.56;;;26.53;76.20
56006;BME280;41888;44.696;10.522;2022-09-09T07:18:49;100124.41;;;26.03;79.84
56006;BME280;41888;44.696;10.522;2022-09-09T07:21:17;100121.69;;;25.05;87.35
56006;BME280;41888;44.696;10.522;2022-09-09T07:23:43;100130.56;;;25.11;88.22
56006;BME280;41888;44.696;10.522;2022-09-09T07:26:18;100118.78;;;25.24;88.63
56006;BME280;41888;44.696;10.522;2022-09-09T07:28:45;100118.19;;;25.27;88.90
56006;BME280;41888;44.696;10.522;2022-09-09T07:33:50;100130.19;;;24.76;92.45
56006;BME280;41888;44.696;10.522;2022-09-09T07:36:22;100130.84;;;24.32;95.96
56006;BME280;41888;44.696;10.522;2022-09-09T07:38:51;100133.66;;;24.27;97.91
56006;BME280;41888;44.696;10.522;2022-09-09T07:41:21;100129.75;;;23.60;100.00
56006;BME280;41888;44.696;10.522;2022-09-09T07:43:49;100137.28;;;23.12;100.00
56006;BME280;41888;44.696;10.522;2022-09-09T07:46:17;100139.63;;;22.81;100.00
56006;BME280;41888;44.696;10.522;2022-09-09T07:48:50;100128.63;;;22.91;100.00
56006;BME280;41888;44.696;10.522;2022-09-09T07:51:42;100128.94;;;23.08;100.00
56006;BME280;41888;44.696;10.522;2022-09-09T07:54:12;100122.63;;;22.94;100.00
56006;BME280;41888;44.696;10.522;2022-09-09T07:56:39;100124.19;;;23.33;100.00
56006;BME280;41888;44.696;10.522;2022-09-09T07:59:06;100123.81;;;23.39;100.00
56006;BME280;41888;44.696;10.522;2022-09-09T08:01:38;100128.78;;;23.19;100.00
56006;BME280;41888;44.696;10.522;2022-09-09T08:04:07;100126.81;;;23.38;100.00
56006;BME280;41888;44.696;10.522;2022-09-09T08:06:42;100131.38;;;23.61;100.00
56006;BME280;41888;44.696;10.522;2022-09-09T08:09:09;100134.03;;;23.29;100.00
56006;BME280;41888;44.696;10.522;2022-09-09T08:11:36;100139.53;;;23.24;100.00
56006;BME280;41888;44.696;10.522;2022-09-09T08:14:03;100138.63;;;23.14;100.00
56006;BME280;41888;44.696;10.522;2022-09-09T08:16:32;100141.53;;;23.37;100.00
56006;BME280;41888;44.696;10.522;2022-09-09T08:18:59;100139.84;;;23.73;100.00
56006;BME280;41888;44.696;10.522;2022-09-09T08:21:29;100137.53;;;23.80;100.00
56006;BME280;41888;44.696;10.522;2022-09-09T08:23:57;100132.00;;;23.85;100.00
56006;BME280;41888;44.696;10.522;2022-09-09T08:26:28;100145.59;;;23.85;100.00
56006;BME280;41888;44.696;10.522;2022-09-09T08:28:57;100144.94;;;23.42;100.00
56006;BME280;41888;44.696;10.522;2022-09-09T08:31:26;100139.78;;;23.46;100.00
56006;BME280;41888;44.696;10.522;2022-09-09T08:33:54;100150.19;;;23.01;100.00
56006;BME280;41888;44.696;10.522;2022-09-09T08:36:22;100148.56;;;23.56;100.00
56006;BME280;41888;44.696;10.522;2022-09-09T08:38:50;100146.91;;;23.88;100.00
56006;BME280;41888;44.696;10.522;2022-09-09T08:47:01;100161.81;;;24.86;100.00
56006;BME280;41888;44.696;10.522;2022-09-09T08:52:03;100168.28;;;25.04;100.00
56006;BME280;41888;44.696;10.522;2022-09-09T08:54:36;100177.06;;;25.01;100.00
56006;BME280;41888;44.696;10.522;2022-09-09T08:57:03;100177.97;;;24.82;100.00
56006;BME280;41888;44.696;10.522;2022-09-09T08:59:37;100179.31;;;25.21;100.00
56006;BME280;41888;44.696;10.522;2022-09-09T09:02:34;100168.47;;;25.30;100.00
56006;BME280;41888;44.696;10.522;2022-09-09T09:05:31;100172.75;;;25.44;100.00
56006;BME280;41888;44.696;10.522;2022-09-09T09:10:54;100165.97;;;24.83;100.00
56006;BME280;41888;44.696;10.522;2022-09-09T09:13:54;100166.50;;;25.21;100.00
56006;BME280;41888;44.696;10.522;2022-09-09T09:19:03;100167.69;;;25.51;100.00
56006;BME280;41888;44.696;10.522;2022-09-09T09:21:43;100170.00;;;25.80;100.00
56006;BME280;41888;44.696;10.522;2022-09-09T09:27:43;100157.38;;;25.93;98.47
56006;BME280;41888;44.696;10.522;2022-09-09T09:30:17;100156.94;;;26.30;96.38
56006;BME280;41888;44.696;10.522;2022-09-09T09:32:52;100152.19;;;26.53;95.05
56006;BME280;41888;44.696;10.522;2022-09-09T09:35:20;100161.44;;;26.92;93.97
56006;BME280;41888;44.696;10.522;2022-09-09T09:37:46;100155.81;;;26.97;94.19
56006;BME280;41888;44.696;10.522;2022-09-09T09:40:16;100161.59;;;27.29;90.31
56006;BME280;41888;44.696;10.522;2022-09-09T09:42:53;100157.75;;;27.39;89.71
56006;BME280;41888;44.696;10.522;2022-09-09T09:45:31;100155.66;;;27.70;89.09
56006;BME280;41888;44.696;10.522;2022-09-09T09:48:06;100151.00;;;27.37;88.64
56006;BME280;41888;44.696;10.522;2022-09-09T09:50:33;100152.56;;;27.72;87.06
56006;BME280;41888;44.696;10.522;2022-09-09T09:53:04;100159.97;;;27.71;85.92
56006;BME280;41888;44.696;10.522;2022-09-09T09:55:32;100152.84;;;27.96;84.56
56006;BME280;41888;44.696;10.522;2022-09-09T09:58:05;100157.59;;;27.61;84.18
56006;BME280;41888;44.696;10.522;2022-09-09T10:00:33;100155.13;;;27.77;86.28
56006;BME280;41888;44.696;10.522;2022-09-09T10:03:12;100164.91;;;27.87;83.83
56006;BME280;41888;44.696;10.522;2022-09-09T10:05:45;100152.66;;;28.01;82.86
56006;BME280;41888;44.696;10.522;2022-09-09T10:08:14;100149.31;;;27.96;81.84
56006;BME280;41888;44.696;10.522;2022-09-09T10:30:10;100145.75;;;28.12;77.59
56006;BME280;41888;44.696;10.522;2022-09-09T10:38:16;100144.19;;;28.32;77.13
56006;BME280;41888;44.696;10.522;2022-09-09T10:43:36;100142.56;;;28.31;74.13
56006;BME280;41888;44.696;10.522;2022-09-09T10:55:06;100148.44;;;29.21;71.88
56006;BME280;41888;44.696;10.522;2022-09-09T10:57:46;100148.72;;;29.08;73.65
56006;BME280;41888;44.696;10.522;2022-09-09T11:00:17;100138.59;;;29.41;73.45
56006;BME280;41888;44.696;10.522;2022-09-09T11:02:48;100143.50;;;29.15;72.02
56006;BME280;41888;44.696;10.522;2022-09-09T11:05:22;100140.91;;;29.18;71.27
56006;BME280;41888;44.696;10.522;2022-09-09T11:07:52;100143.06;;;29.25;71.32
56006;BME280;41888;44.696;10.522;2022-09-09T11:10:42;100131.06;;;29.71;71.84
56006;BME280;41888;44.696;10.522;2022-09-09T11:13:40;100129.88;;;29.06;72.43
56006;BME280;41888;44.696;10.522;2022-09-09T11:16:25;100127.84;;;29.15;74.57
56006;BME280;41888;44.696;10.522;2022-09-09T11:21:49;100130.00;;;29.63;74.71
56006;BME280;41888;44.696;10.522;2022-09-09T11:24:38;100121.78;;;29.63;73.43
56006;BME280;41888;44.696;10.522;2022-09-09T11:27:09;100133.34;;;29.36;76.39
56006;BME280;41888;44.696;10.522;2022-09-09T11:40:25;100123.63;;;29.71;68.09
56006;BME280;41888;44.696;10.522;2022-09-09T11:43:13;100129.75;;;29.56;66.63
56006;BME280;41888;44.696;10.522;2022-09-09T11:45:49;100130.25;;;29.70;64.45
56006;BME280;41888;44.696;10.522;2022-09-09T11:49:05;100126.16;;;29.89;64.25
56006;BME280;41888;44.696;10.522;2022-09-09T11:51:32;100120.91;;;29.38;65.65
56006;BME280;41888;44.696;10.522;2022-09-09T11:54:00;100119.97;;;29.79;64.33
56006;BME280;41888;44.696;10.522;2022-09-09T11:56:31;100122.56;;;29.64;65.09
56006;BME280;41888;44.696;10.522;2022-09-09T11:59:16;100121.41;;;29.98;64.30
56006;BME280;41888;44.696;10.522;2022-09-09T12:01:48;100112.81;;;29.99;62.28
56006;BME280;41888;44.696;10.522;2022-09-09T12:04:48;100119.94;;;29.67;66.31
56006;BME280;41888;44.696;10.522;2022-09-09T12:07:40;100106.94;;;29.64;67.49
56006;BME280;41888;44.696;10.522;2022-09-09T12:10:26;100097.72;;;29.81;66.59
56006;BME280;41888;44.696;10.522;2022-09-09T12:12:53;100109.47;;;29.82;65.55
56006;BME280;41888;44.696;10.522;2022-09-09T12:15:28;100096.03;;;30.13;64.27
56006;BME280;41888;44.696;10.522;2022-09-09T12:17:57;100099.75;;;29.84;65.14
56006;BME280;41888;44.696;10.522;2022-09-09T12:23:03;100091.41;;;29.80;62.84
56006;BME280;41888;44.696;10.522;2022-09-09T12:33:44;100092.69;;;30.19;63.08
56006;BME280;41888;44.696;10.522;2022-09-09T12:36:28;100077.41;;;29.94;62.67
56006;BME280;41888;44.696;10.522;2022-09-09T12:38:57;100084.22;;;29.88;63.58
56006;BME280;41888;44.696;10.522;2022-09-09T12:41:27;100077.91;;;29.88;63.16
56006;BME280;41888;44.696;10.522;2022-09-09T12:44:09;100090.19;;;30.27;62.09
56006;BME280;41888;44.696;10.522;2022-09-09T12:46:41;100084.47;;;29.95;62.23
56006;BME280;41888;44.696;10.522;2022-09-09T12:52:21;100075.28;;;29.55;64.26
56006;BME280;41888;44.696;10.522;2022-09-09T12:54:50;100080.44;;;29.80;63.15
56006;BME280;41888;44.696;10.522;2022-09-09T12:57:19;100086.75;;;29.93;62.75
56006;BME280;41888;44.696;10.522;2022-09-09T12:59:48;100088.78;;;29.84;62.29
56006;BME280;41888;44.696;10.522;2022-09-09T13:02:32;100084.84;;;28.95;64.93
56006;BME280;41888;44.696;10.522;2022-09-09T13:05:17;100078.63;;;28.65;66.58
56006;BME280;41888;44.696;10.522;2022-09-09T13:07:44;100085.72;;;29.08;65.80
56006;BME280;41888;44.696;10.522;2022-09-09T13:10:15;100073.03;;;29.36;65.73
56006;BME280;41888;44.696;10.522;2022-09-09T13:12:46;100062.81;;;29.57;62.96
56006;BME280;41888;44.696;10.522;2022-09-09T13:15:22;100070.97;;;28.79;65.84
56006;BME280;41888;44.696;10.522;2022-09-09T13:18:06;100075.72;;;28.11;69.46
56006;BME280;41888;44.696;10.522;2022-09-09T13:20:34;100077.59;;;27.90;71.60
56006;BME280;41888;44.696;10.522;2022-09-09T13:23:00;100081.13;;;27.82;71.51
56006;BME280;41888;44.696;10.522;2022-09-09T13:25:28;100087.47;;;28.03;71.18
56006;BME280;41888;44.696;10.522;2022-09-09T13:28:00;100086.41;;;27.96;72.27
56006;BME280;41888;44.696;10.522;2022-09-09T13:30:29;100081.44;;;27.89;72.85
56006;BME280;41888;44.696;10.522;2022-09-09T13:35:46;100084.66;;;27.91;74.38
56006;BME280;41888;44.696;10.522;2022-09-09T13:38:15;100078.81;;;28.01;74.21
56006;BME280;41888;44.696;10.522;2022-09-09T13:40:53;100077.16;;;28.09;71.33
56006;BME280;41888;44.696;10.522;2022-09-09T13:43:23;100071.59;;;27.59;71.70
56006;BME280;41888;44.696;10.522;2022-09-09T13:48:22;100052.03;;;27.86;71.58
56006;BME280;41888;44.696;10.522;2022-09-09T13:51:03;100041.97;;;28.07;69.74
56006;BME280;41888;44.696;10.522;2022-09-09T13:53:31;100041.28;;;28.10;70.17
56006;BME280;41888;44.696;10.522;2022-09-09T13:55:58;100034.63;;;28.70;66.45
56006;BME280;41888;44.696;10.522;2022-09-09T13:58:24;100030.75;;;28.92;65.82
56006;BME280;41888;44.696;10.522;2022-09-09T14:00:52;100035.06;;;28.93;65.99
56006;BME280;41888;44.696;10.522;2022-09-09T14:03:19;100040.31;;;29.52;62.64
56006;BME280;41888;44.696;10.522;2022-09-09T14:05:45;100033.59;;;29.73;60.91
56006;BME280;41888;44.696;10.522;2022-09-09T14:08:24;100035.44;;;29.82;59.47
56006;BME280;41888;44.696;10.522;2022-09-09T14:10:50;100035.47;;;29.04;61.52
56006;BME280;41888;44.696;10.522;2022-09-09T14:13:18;100023.31;;;29.13;62.59
56006;BME280;41888;44.696;10.522;2022-09-09T14:15:44;100027.16;;;29.33;62.09
56006;BME280;41888;44.696;10.522;2022-09-09T14:18:11;100030.41;;;29.26;63.33
56006;BME280;41888;44.696;10.522;2022-09-09T14:20:38;100030.84;;;29.73;60.83
56006;BME280;41888;44.696;10.522;2022-09-09T14:23:04;100025.19;;;30.03;59.25
56006;BME280;41888;44.696;10.522;2022-09-09T14:25:31;100025.63;;;29.93;61.33
56006;BME280;41888;44.696;10.522;2022-09-09T14:27:57;100033.38;;;30.27;61.21
56006;BME280;41888;44.696;10.522;2022-09-09T14:30:23;100030.38;;;30.44;60.29
56006;BME280;41888;44.696;10.522;2022-09-09T14:32:49;100036.78;;;30.36;59.05
56006;BME280;41888;44.696;10.522;2022-09-09T14:35:15;100034.00;;;29.39;62.58
56006;BME280;41888;44.696;10.522;2022-09-09T14:37:44;100050.91;;;29.41;62.90
56006;BME280;41888;44.696;10.522;2022-09-09T14:40:10;100047.06;;;29.54;61.77
56006;BME280;41888;44.696;10.522;2022-09-09T14:42:37;100047.22;;;29.82;61.10
56006;BME280;41888;44.696;10.522;2022-09-09T14:45:03;100043.91;;;30.01;60.76
56006;BME280;41888;44.696;10.522;2022-09-09T14:47:29;100050.88;;;29.98;60.53
56006;BME280;41888;44.696;10.522;2022-09-09T14:49:56;100050.97;;;29.65;60.48
56006;BME280;41888;44.696;10.522;2022-09-09T14:52:22;100047.13;;;30.03;60.23
56006;BME280;41888;44.696;10.522;2022-09-09T14:54:48;100049.28;;;30.09;59.14
56006;BME280;41888;44.696;10.522;2022-09-09T14:57:15;100046.19;;;30.11;58.58
56006;BME280;41888;44.696;10.522;2022-09-09T14:59:41;100043.25;;;29.92;58.11
56006;BME280;41888;44.696;10.522;2022-09-09T15:02:09;100045.16;;;30.15;58.12
56006;BME280;41888;44.696;10.522;2022-09-09T15:04:35;100043.31;;;30.32;57.35
56006;BME280;41888;44.696;10.522;2022-09-09T15:07:01;100044.75;;;30.41;57.42
56006;BME280;41888;44.696;10.522;2022-09-09T15:09:27;100037.59;;;30.25;57.35
56006;BME280;41888;44.696;10.522;2022-09-09T15:11:53;100039.09;;;29.86;56.20